EDT,Max TemperatureF,Mean TemperatureF,Min TemperatureF,Max Dew PointF,MeanDew PointF,Min DewpointF,Max Humidity, Mean Humidity, Min Humidity, Max Sea Level PressureIn, Mean Sea Level PressureIn, Min Sea Level PressureIn, Max VisibilityMiles, Mean VisibilityMiles, Min VisibilityMiles, Max Wind SpeedMPH, Mean Wind SpeedMPH, Max Gust SpeedMPH,PrecipitationIn, CloudCover, Events, WindDirDegrees
2013-3-1,39,37,35,36,32,30,100,82,68,29.67,29.58,29.49,10,10,8,16,6,25,0.00,7,,328
2013-3-2,43,39,35,34,29,26,93,71,51,29.67,29.65,29.63,10,10,10,10,5,17,0.00,7,,298
2013-3-3,39,37,35,34,30,28,93,79,65,29.63,29.60,29.58,10,10,9,8,5,,0.00,8,Rain,278
2013-3-4,41,37,33,31,27,21,92,74,47,29.69,29.61,29.57,10,9,2,15,9,26,0.00,6,Snow,308
2013-3-5,42,38,35,37,32,26,100,81,70,30.04,29.91,29.68,10,9,5,13,8,22,0.07,7,Rain-Snow,345
2013-3-6,41,38,36,36,34,32,93,81,70,30.07,30.01,29.92,10,9,7,29,12,48,0.02,7,Rain,59
2013-3-7,37,36,35,36,35,34,93,92,89,29.87,29.85,29.83,8,4,2,28,23,46,1.56,8,Rain-Snow,34
2013-3-8,42,38,35,36,34,30,100,89,62,30.04,29.88,29.81,10,4,2,25,17,44,1.04,8,Rain-Snow,28
2013-3-9,39,38,37,31,30,30,79,75,70,30.31,30.19,30.04,10,10,10,16,13,30,0.00,8,,27
2013-3-10,39,37,35,31,30,30,81,74,68,30.40,30.36,30.32,10,10,10,10,8,,0.00,8,,71
2013-3-11,46,41,37,40,36,31,93,83,73,30.35,30.29,30.21,10,10,10,10,6,17,0.00,5,,191
2013-3-12,48,45,42,48,45,39,100,93,86,30.22,30.02,29.79,10,8,2,15,11,28,0.14,5,Rain,166
2013-3-13,52,46,39,48,39,21,100,82,43,29.79,29.75,29.70,10,7,2,15,8,28,0.62,6,Rain,269
2013-3-14,39,34,27,25,18,9,72,53,38,29.80,29.76,29.70,10,10,5,15,5,25,0.00,5,Snow,290
2013-3-15,39,32,24,26,14,7,67,50,28,29.87,29.78,29.69,10,10,10,14,11,30,0.00,4,,280
2013-3-16,37,34,32,25,18,14,64,52,42,29.88,29.81,29.69,10,10,10,13,7,24,0.00,3,,306
2013-3-17,39,30,24,26,17,9,91,55,36,30.30,30.04,29.88,10,10,10,14,3,24,0.00,1,,336
2013-3-18,34,29,25,28,17,8,93,61,42,30.45,30.36,30.27,10,8,2,10,6,20,0.01,3,Snow,95
2013-3-19,45,37,30,45,36,28,100,94,85,30.25,29.77,29.50,10,4,0,20,14,34,0.52,8,Fog-Rain-Snow,106
2013-3-20,43,35,28,28,23,18,87,66,38,29.85,29.75,29.64,10,10,10,17,11,31,0.00,4,,269
2013-3-21,41,34,28,32,28,23,96,73,52,29.85,29.68,29.57,10,8,1,13,6,22,0.13,6,Snow,14
2013-3-22,37,34,30,32,28,22,100,87,57,29.75,29.63,29.56,10,4,0,13,7,23,0.50,6,Fog-Snow,301
2013-3-23,44,36,28,23,20,17,72,52,35,29.77,29.72,29.65,10,10,10,15,8,26,0.00,1,,281
2013-3-24,45,38,30,27,24,19,85,60,42,29.83,29.79,29.76,10,10,10,13,7,21,0.00,0,,326
2013-3-25,45,37,30,33,30,26,89,71,51,29.76,29.57,29.43,10,10,10,23,10,32,0.00,4,Rain,50
2013-3-26,46,40,35,33,27,20,86,62,34,29.77,29.63,29.44,10,10,9,14,9,26,0.00,4,Rain,322
2013-3-27,52,42,33,36,29,23,86,61,38,29.84,29.79,29.76,10,10,6,10,5,20,0.01,2,Rain,322
2013-3-28,48,42,37,38,34,25,93,77,44,30.03,29.90,29.82,10,10,6,13,5,22,0.04,8,Rain,8
2013-3-29,55,46,37,37,33,31,82,64,47,30.05,30.03,30.01,10,10,10,9,3,,0.00,3,Rain,249
2013-3-30,54,46,39,36,34,29,89,67,41,30.12,30.07,30.03,10,10,9,10,4,,0.00,2,Rain,247
2013-3-31,51,40,30,41,36,29,93,78,61,30.15,30.07,29.81,10,10,9,14,4,26,0.03,2,Rain,198